Flight Track Log - Related Links

Times and Time Zones

All times are in EDT time to prevent confusion due to time zone crossing. See the N45TP flight status page for this flight to view local times or setup timezone preferences in your user account.

Time Position Orientation Groundspeed Altitude Reporting Facility
EDT Latitude Longitude Course Direction KTS MPH feet Rate Location/Type
Mon 12:29:23 PM 37.7233 -87.1872 184° South 281 323 8,800  Level Indianapolis Center
Mon 12:30:25 PM 37.6528 -87.1239 145° Southeast 305 351 12,600 3,366 Climbing Indianapolis Center
Mon 12:31:26 PM 37.5542 -87.0319 144° Southeast 368 423 15,700 2,922 Climbing Indianapolis Center
Mon 12:32:20 PM 37.4747 -86.9572 143° Southeast 388 447 18,200 2,895 Climbing Memphis Center
Mon 12:33:00 PM 37.3137 -86.8075 146° Southeast  Level Estimated
Mon 12:33:20 PM 37.3828 -86.8697 143° Southeast 400 460 21,200  Level Memphis Center
Mon 12:34:31 PM 37.2731 -86.7692 144° Southeast 414 476 24,100 2,200 Climbing Indianapolis Center
Mon 12:35:20 PM 37.2050 -86.7006 141° Southeast 421 484 25,600 2,147 Climbing Memphis Center
Mon 12:36:20 PM 37.1108 -86.6111 143° Southeast 429 494 28,000 2,350 Climbing Memphis Center
Mon 12:37:20 PM 37.0100 -86.5200 144° Southeast 443 510 30,300 2,350 Climbing Memphis Center
Mon 12:38:20 PM 36.9114 -86.4311 144° Southeast 443 510 32,700 2,400 Climbing Memphis Center
Mon 12:39:20 PM 36.7939 -86.3411 148° Southeast 448 516 35,100 2,350 Climbing Memphis Center
Mon 12:40:20 PM 36.6933 -86.2581 146° Southeast 448 516 37,400 1,950 Climbing Memphis Center
Mon 12:41:20 PM 36.5906 -86.1781 148° Southeast 448 516 39,000 800 Climbing Memphis Center
Mon 12:42:20 PM 36.4833 -86.0933 148° Southeast 448 516 39,000  Level Memphis Center
Mon 12:43:20 PM 36.3700 -86.0064 148° Southeast 465 535 39,000  Level Memphis Center
Mon 12:44:20 PM 36.2564 -85.9197 148° Southeast 478 550 39,000  Level Memphis Center
Mon 12:46:31 PM 36.0236 -85.7433 148° Southeast 488 562 39,000  Level Atlanta Center
Mon 12:47:31 PM 35.9100 -85.6564 148° Southeast 483 556 39,000  Level Atlanta Center
Mon 12:48:31 PM 35.8006 -85.5725 148° Southeast 478 550 39,000  Level Atlanta Center
Mon 12:49:31 PM 35.6889 -85.4858 148° Southeast 473 544 39,000  Level Atlanta Center
Mon 12:50:31 PM 35.5753 -85.3997 148° Southeast 473 544 39,000  Level Atlanta Center
Mon 12:51:31 PM 35.4633 -85.3136 148° Southeast 473 544 39,000  Level Atlanta Center
Mon 12:52:31 PM 35.3494 -85.2306 149° Southeast 473 544 39,000  Level Atlanta Center
Mon 12:53:31 PM 35.2375 -85.1450 148° Southeast 468 539 39,000  Level Atlanta Center
Mon 12:54:31 PM 35.1214 -85.0594 149° Southeast 468 539 39,000  Level Atlanta Center
Mon 12:55:31 PM 35.0094 -84.9769 149° Southeast 468 539 39,000  Level Atlanta Center
Mon 12:56:31 PM 34.8975 -84.8922 148° Southeast 468 539 39,000  Level Atlanta Center
Mon 12:57:31 PM 34.7811 -84.8075 149° Southeast 473 544 39,000  Level Atlanta Center
Mon 12:58:31 PM 34.6647 -84.7233 149° Southeast 479 551 39,000  Level Atlanta Center
Mon 12:59:31 PM 34.5547 -84.6392 148° Southeast 479 551 39,000  Level Atlanta Center
Mon 01:00:31 PM 34.4278 -84.5450 149° Southeast 479 551 39,000  Level Atlanta Center
Mon 01:01:31 PM 34.3111 -84.4589 149° Southeast 485 558 39,000  Level Atlanta Center
Mon 01:02:31 PM 34.1967 -84.3728 148° Southeast 490 564 39,000  Level Atlanta Center
Mon 01:03:31 PM 34.0861 -84.2997 151° Southeast 490 564 39,000  Level Atlanta Center
Mon 01:04:31 PM 33.9569 -84.2017 148° Southeast 502 578 39,000  Level Atlanta Center
Mon 01:05:31 PM 33.8486 -84.1239 149° Southeast 507 583 39,000  Level Atlanta Center
Mon 01:06:31 PM 33.7253 -84.0339 149° Southeast 513 590 39,000 -400 Level Atlanta Center
Mon 01:07:31 PM 33.6042 -83.9492 150° Southeast 513 590 38,200 -950 Descending Atlanta Center
Mon 01:08:31 PM 33.4894 -83.8669 149° Southeast 503 579 37,100 -1,100 Descending Atlanta Center
Mon 01:09:31 PM 33.3722 -83.7850 150° Southeast 497 572 36,000 -1,100 Descending Atlanta Center
Mon 01:10:31 PM 33.2469 -83.6961 149° Southeast 486 559 34,900 -1,100 Descending Atlanta Center
Mon 01:11:31 PM 33.1361 -83.6172 149° Southeast 476 548 33,800 -1,150 Descending Atlanta Center
Mon 01:12:31 PM 33.0250 -83.5408 150° Southeast 463 533 32,600 -1,100 Descending Atlanta Center
Mon 01:13:31 PM 32.9078 -83.4575 149° Southeast 472 543 31,600 -800 Descending Atlanta Center
Mon 01:14:31 PM 32.7947 -83.3792 150° Southeast 472 543 31,000 -300 Descending Atlanta Center
Mon 01:15:31 PM 32.6836 -83.3008 149° Southeast 467 537 31,000  Level Atlanta Center
Mon 01:16:31 PM 32.5706 -83.2231 150° Southeast 467 537 31,000  Level Atlanta Center
Mon 01:18:27 PM 32.3500 -83.0697 150° Southeast 449 517 31,000 -170 Level Jacksonville Center
Mon 01:19:27 PM 32.2375 -82.9908 149° Southeast 460 529 30,500 -1,250 Descending Jacksonville Center
Mon 01:20:27 PM 32.1247 -82.9097 149° Southeast 465 535 28,500 -2,250 Descending Jacksonville Center
Mon 01:21:27 PM 32.0142 -82.8289 148° Southeast 465 535 26,000 -1,250 Descending Jacksonville Center
Mon 01:22:27 PM 31.9075 -82.7581 151° Southeast 458 527 26,000  Level Jacksonville Center
Mon 01:23:27 PM 31.7969 -82.6897 152° Southeast 452 520 26,000 -150 Level Jacksonville Center
Mon 01:24:27 PM 31.6861 -82.6167 151° Southeast 452 520 25,700 -1,250 Descending Jacksonville Center
Mon 01:25:27 PM 31.5794 -82.5414 149° Southeast 452 520 23,500 -2,200 Descending Jacksonville Center
Mon 01:26:27 PM 31.4728 -82.4783 153° Southeast 446 513 21,300 -1,500 Descending Jacksonville Center
Mon 01:27:27 PM 31.3597 -82.4522 169° South 413 475 20,500 -1,650 Descending Jacksonville Center
Mon 01:28:27 PM 31.2533 -82.4308 170° South 405 466 18,000 -2,350 Descending Jacksonville Center
Mon 01:29:27 PM 31.1611 -82.3608 147° Southeast 383 441 15,800 -2,325 Descending Jacksonville Center
Mon 01:29:47 PM 31.1339 -82.3392 146° Southeast 392 451 14,900 -2,400 Descending Jacksonville Center
Mon 01:30:27 PM 31.0689 -82.2958 150° Southeast 383 441 13,400 -1,740 Descending Jacksonville Center
Mon 01:31:27 PM 30.9811 -82.2333 149° Southeast 377 434 12,000 -743 Descending Jacksonville Center
Mon 01:32:20 PM 30.9181 -82.1614 136° Southeast 386 444 12,000 -158 Level Jacksonville Center
Mon 01:33:21 PM 30.8525 -82.0600 127° Southeast 387 445 11,700 -425 Descending Jacksonville Center
Mon 01:34:27 PM 30.7767 -81.9544 130° Southeast 372 428 11,100 -590 Descending Jacksonville Center
Mon 01:35:23 PM 30.7156 -81.8633 128° Southeast 377 434 10,500 -750 Descending Jacksonville Center
Mon 01:36:27 PM 30.6500 -81.7650 128° Southeast 372 428 9,600 -1,355 Descending Jacksonville Center
Mon 01:37:27 PM 30.5947 -81.6836 128° Southeast 345 397 7,700 -1,900 Descending Jacksonville Center
Mon 01:38:27 PM 30.5481 -81.6094 126° Southeast 314 361 5,800 -1,950 Descending Jacksonville Center
Mon 01:39:27 PM 30.4931 -81.5403 133° Southeast 294 338 3,800 -1,748 Descending Jacksonville Center
Mon 01:40:34 PM 30.4239 -81.4978 152° Southeast 245 282 2,100 -1,082 Descending Jacksonville Center
Mon 01:41:29 PM 30.3733 -81.4697 154° Southeast 200 230 1,600 -569 Descending Jacksonville Center
Mon 01:42:30 PM 30.3317 -81.4606 169° South 139 160 1,000 -563 Descending Jacksonville Center
Mon 01:43:37 PM 30.3214 -81.4969 252° West 116 133 400 -328 Descending Jacksonville Center
Mon 01:44:38 PM 30.3342 -81.5086 322° Northwest 113 130 300 -98 Descending Jacksonville Center

Login

Don't have an account? Register now (free) for customized features, flight alerts, and more!